TLS weather

Toulouse-Blagnac Airport
Toulouse/Blagnac, Midi-Pyrénées, France

Public forecast

Using degrees Celsius for public forecast. Weather courtesy of forecast.io.

METAR (pilot weather report)

Retrieved 2019/05/24 02:30 UTC (0 seconds ago):

LFBO 240230Z AUTO 29011KT 7000 -RA BKN012 BKN036 OVC068 15/14 Q1017 TEMPO 4000 RA BKN020

TAF (pilot weather forecast)

Forecast is more than 12 hours old.

Retrieved 2019/05/23 00:21 UTC (1 day ago):

TAF LFBO 232300Z 2400/2506 27010KT CAVOK PROB40 TEMPO 2400/2402 27015G25KT -TSRA SCT035CB BKN070 BECMG 2400/2402 BKN012 BECMG 2402/2404 -RA BKN020 TEMPO 2404/2411 4000 RA OVC008 PROB30 TEMPO 2412/2418 NSW BKN008 TEMPO 2418/2424 BKN008